Time;durP1;ratioP1;P1;durP2;ratioP2;P2;SDS_P1;SDS_P2;PMS_P1;PMS_P2;Temp;Humidity;BMP_temperature;BMP_pressure;BME280_temperature;BME280_humidity;BME280_pressure;Samples;Min_cycle;Max_cycle;Signal;HPM_P1;HPM_P2
2023/06/03 00:01:11;;;;;;;9.38;5.82;;;;;;;11.86;82.87;101997.00;5008388;28;20042;-73
2023/06/03 00:03:39;;;;;;;9.95;6.07;;;;;;;11.84;84.43;101992.59;5008593;28;20033;-73
2023/06/03 00:06:07;;;;;;;12.07;6.63;;;;;;;11.80;83.94;101986.44;5007979;28;20034;-73
2023/06/03 00:08:32;;;;;;;10.13;5.75;;;;;;;11.65;83.30;101966.38;5006527;28;20045;-73
2023/06/03 00:10:58;;;;;;;11.70;6.35;;;;;;;11.71;84.46;101992.44;5007270;28;20473;-73
2023/06/03 00:13:23;;;;;;;11.65;6.50;;;;;;;11.67;83.57;101986.28;5008135;28;20532;-73
2023/06/03 00:15:49;;;;;;;11.40;6.07;;;;;;;11.66;82.84;101987.25;5008334;28;20550;-73
2023/06/03 00:18:15;;;;;;;11.13;5.72;;;;;;;11.65;82.76;101984.59;5008610;28;20379;-73
2023/06/03 00:20:42;;;;;;;9.65;6.22;;;;;;;11.65;82.62;101990.03;5007398;28;20026;-73
2023/06/03 00:23:08;;;;;;;13.82;6.95;;;;;;;11.61;84.22;101986.63;5006823;28;20045;-73
2023/06/03 00:25:34;;;;;;;11.20;5.95;;;;;;;11.61;82.63;101991.19;5007000;28;20045;-73
2023/06/03 00:28:00;;;;;;;9.95;6.50;;;;;;;11.58;82.79;101994.09;5007620;28;20125;-73
2023/06/03 00:30:26;;;;;;;10.95;6.72;;;;;;;11.58;82.71;101994.97;5011830;28;20029;-73
2023/06/03 00:32:51;;;;;;;11.95;6.95;;;;;;;11.55;82.90;101992.44;5026236;28;20037;-73
2023/06/03 00:35:17;;;;;;;15.73;7.10;;;;;;;11.53;84.16;101991.66;5027651;28;20049;-72
2023/06/03 00:37:43;;;;;;;12.90;7.13;;;;;;;11.50;84.10;101994.53;5027452;28;20072;-73
2023/06/03 00:40:09;;;;;;;14.38;7.13;;;;;;;11.45;84.92;101986.63;5017711;28;20192;-73
2023/06/03 00:42:35;;;;;;;13.70;6.30;;;;;;;11.42;83.49;101981.38;5005848;28;20397;-72
2023/06/03 00:45:00;;;;;;;12.05;6.85;;;;;;;11.42;82.22;101986.81;5015004;28;20124;-73
2023/06/03 00:47:26;;;;;;;14.38;7.22;;;;;;;11.41;83.72;101992.34;5006185;28;20402;-73
2023/06/03 00:49:52;;;;;;;14.23;7.55;;;;;;;11.37;84.02;101986.19;5022380;28;20038;-73
2023/06/03 00:52:19;;;;;;;9.27;6.63;;;;;;;11.37;83.79;101990.75;5007936;28;20187;-73
2023/06/03 00:54:47;;;;;;;13.20;7.47;;;;;;;11.32;83.89;101993.75;5007463;28;20482;-72
2023/06/03 00:57:12;;;;;;;10.82;7.45;;;;;;;11.32;83.36;101988.31;5005020;28;20029;-72
2023/06/03 00:59:38;;;;;;;21.10;8.88;;;;;;;11.31;84.21;101993.84;5011426;28;20235;-73
2023/06/03 01:02:04;;;;;;;12.18;7.63;;;;;;;11.28;84.70;101989.44;5005932;28;20371;-72
2023/06/03 01:04:30;;;;;;;13.70;7.78;;;;;;;11.23;85.29;101981.53;5007112;28;20057;-73
2023/06/03 01:07:06;;;;;;;15.40;7.47;;;;;;;11.22;84.37;101990.66;5007119;28;20101;-72
2023/06/03 01:09:46;;;;;;;13.90;7.25;;;;;;;11.18;85.23;101989.09;5006780;28;20052;-72
2023/06/03 01:12:48;;;;;;;14.00;8.10;;;;;;;11.17;83.76;101991.91;5013652;28;20646;-72
2023/06/03 01:15:20;;;;;;;11.52;7.15;;;;;;;11.13;84.54;101995.75;5014099;28;20029;-72
2023/06/03 01:17:49;;;;;;;11.15;6.93;;;;;;;11.11;84.12;101986.81;5007855;28;20049;-72
2023/06/03 01:20:16;;;;;;;14.80;7.25;;;;;;;11.10;83.55;101993.22;5005727;28;20026;-72
2023/06/03 01:22:44;;;;;;;10.50;7.10;;;;;;;11.09;84.23;101989.59;5290232;23;20081;-82
2023/06/03 01:25:15;;;;;;;12.85;8.43;;;;;;;11.05;85.22;101995.31;4966870;28;20363;-83
2023/06/03 01:27:42;;;;;;;10.32;8.10;;;;;;;11.01;86.41;101993.75;4967936;28;20031;-82
2023/06/03 01:30:13;;;;;;;14.88;8.20;;;;;;;10.94;85.96;101985.91;4957404;28;20047;-83
2023/06/03 01:32:42;;;;;;;11.60;8.10;;;;;;;10.92;85.38;101992.41;4966849;28;20046;-82
2023/06/03 01:35:10;;;;;;;17.27;8.38;;;;;;;10.88;85.43;101983.53;4953825;29;20043;-83
2023/06/03 01:37:36;;;;;;;11.68;7.40;;;;;;;10.86;84.88;101984.56;4954503;29;20049;-82
2023/06/03 01:40:04;;;;;;;14.90;8.10;;;;;;;10.85;84.93;101982.81;4953812;28;20038;-82
2023/06/03 01:42:33;;;;;;;13.27;8.10;;;;;;;10.83;85.02;101982.03;4971201;28;20038;-82
2023/06/03 01:44:59;;;;;;;12.20;7.10;;;;;;;10.80;84.09;101977.63;4971305;28;20042;-82
2023/06/03 01:47:26;;;;;;;14.90;7.82;;;;;;;10.78;84.61;101976.84;4957105;28;20030;-82
2023/06/03 01:49:53;;;;;;;19.80;7.93;;;;;;;10.78;84.61;101975.97;4972978;28;20055;-82
2023/06/03 01:52:18;;;;;;;12.07;7.45;;;;;;;10.79;83.93;101986.75;4952491;29;20107;-82
2023/06/03 01:54:45;;;;;;;12.80;7.05;;;;;;;10.77;84.06;101985.97;4952861;28;20398;-82
2023/06/03 01:57:11;;;;;;;13.05;7.38;;;;;;;10.77;84.46;101996.88;4953736;28;20427;-82
2023/06/03 01:59:37;;;;;;;11.63;7.38;;;;;;;10.72;85.69;101998.94;4952463;28;20023;-82
2023/06/03 02:02:02;;;;;;;14.40;8.00;;;;;;;10.64;86.61;101995.78;4954041;28;20534;-83
2023/06/03 02:04:28;;;;;;;13.48;7.45;;;;;;;10.60;87.70;101989.59;4952981;28;20169;-82
2023/06/03 02:06:59;;;;;;;15.38;8.18;;;;;;;10.61;86.16;101988.63;4969894;28;20483;-82
2023/06/03 02:09:29;;;;;;;12.35;7.38;;;;;;;10.62;84.88;101993.13;4937191;29;20031;-82
2023/06/03 02:11:56;;;;;;;15.25;7.72;;;;;;;10.62;86.51;101987.66;4958205;28;20040;-82
2023/06/03 02:14:22;;;;;;;11.15;8.05;;;;;;;10.59;85.35;101989.69;4953112;28;20468;-82
2023/06/03 02:16:48;;;;;;;14.70;7.85;;;;;;;10.60;86.50;101980.56;4950327;28;20071;-82
2023/06/03 02:19:17;;;;;;;16.85;7.88;;;;;;;10.57;85.96;101978.88;4953208;28;20035;-82
2023/06/03 02:21:44;;;;;;;17.08;7.65;;;;;;;10.61;86.23;101985.91;4952902;29;20050;-82
2023/06/03 02:24:10;;;;;;;14.85;8.07;;;;;;;10.57;86.36;101988.88;4937116;29;20471;-82
2023/06/03 02:26:38;;;;;;;12.57;8.13;;;;;;;10.50;87.83;101982.91;4936581;28;20039;-82
2023/06/03 02:29:06;;;;;;;11.70;7.10;;;;;;;10.46;85.98;101987.63;4968311;28;20034;-82
2023/06/03 02:31:32;;;;;;;11.65;7.90;;;;;;;10.47;87.06;101981.22;4952434;28;20062;-82
2023/06/03 02:33:59;;;;;;;15.00;7.88;;;;;;;10.45;85.82;101979.56;4953311;29;20049;-82
2023/06/03 02:36:24;;;;;;;11.00;7.47;;;;;;;10.42;85.63;101979.72;4953304;29;20035;-82
2023/06/03 02:38:50;;;;;;;13.80;8.57;;;;;;;10.37;87.70;101979.97;4952643;29;20043;-82
2023/06/03 02:41:16;;;;;;;12.23;7.95;;;;;;;10.36;87.24;101980.06;4950251;29;20574;-83
2023/06/03 02:43:42;;;;;;;18.48;8.00;;;;;;;10.33;87.40;101983.81;4935998;29;20023;-82
2023/06/03 02:46:07;;;;;;;14.32;7.57;;;;;;;10.30;88.01;101988.53;4967820;28;20503;-82
2023/06/03 02:48:33;;;;;;;13.98;7.43;;;;;;;10.24;86.95;101973.41;4954528;28;20038;-81
2023/06/03 02:50:59;;;;;;;10.93;6.53;;;;;;;10.26;88.00;101976.94;4947593;28;20051;-82
2023/06/03 02:53:25;;;;;;;12.15;6.85;;;;;;;10.23;86.74;101985.22;4954237;29;20030;-81
2023/06/03 02:55:51;;;;;;;16.23;7.18;;;;;;;10.22;87.14;101976.19;4956906;28;20067;-82
2023/06/03 02:58:16;;;;;;;9.27;6.65;;;;;;;10.26;86.22;101981.47;4957869;28;20058;-82
2023/06/03 03:00:42;;;;;;;12.82;7.15;;;;;;;10.26;86.85;101976.03;4960705;28;20091;-82
2023/06/03 03:03:09;;;;;;;11.43;6.70;;;;;;;10.25;86.53;101980.59;4971289;28;20043;-82
2023/06/03 03:05:35;;;;;;;13.02;7.65;;;;;;;10.22;86.39;101972.59;4973263;28;20126;-82
2023/06/03 03:08:01;;;;;;;12.70;6.90;;;;;;;10.21;87.00;101979.88;4959031;28;20034;-81
2023/06/03 03:10:27;;;;;;;13.55;7.45;;;;;;;10.21;86.54;101981.69;4969909;28;20125;-82
2023/06/03 03:12:53;;;;;;;12.32;7.40;;;;;;;10.16;89.13;101983.78;4962498;28;20046;-82
2023/06/03 03:15:20;;;;;;;14.32;6.75;;;;;;;10.10;88.01;101971.38;4954946;28;20430;-82
2023/06/03 03:17:46;;;;;;;11.82;6.65;;;;;;;10.13;87.94;101986.66;4974231;28;20058;-82
2023/06/03 03:20:12;;;;;;;12.20;6.93;;;;;;;10.09;87.68;101979.63;4974230;28;20037;-82
2023/06/03 03:22:44;;;;;;;14.38;6.93;;;;;;;10.07;87.33;101978.81;4967978;28;20387;-82
2023/06/03 03:25:11;;;;;;;12.13;6.37;;;;;;;10.10;86.68;101993.13;4970727;28;20043;-82
2023/06/03 03:27:38;;;;;;;13.63;6.88;;;;;;;10.09;87.00;101987.78;4969901;28;20595;-82
2023/06/03 03:30:05;;;;;;;10.98;6.72;;;;;;;10.09;88.63;101991.38;4954916;28;20086;-80
2023/06/03 03:32:31;;;;;;;12.93;6.90;;;;;;;10.05;87.03;101987.06;4938681;29;20499;-82
2023/06/03 03:35:19;;;;;;;11.23;6.40;;;;;;;10.10;85.84;101995.84;4954260;28;20031;-82
2023/06/03 03:38:00;;;;;;;12.68;6.05;;;;;;;10.06;88.60;101994.25;4945191;28;20391;-82
2023/06/03 03:40:25;;;;;;;12.68;6.78;;;;;;;10.06;87.99;102002.41;4953643;29;20042;-81
2023/06/03 03:42:55;;;;;;;11.68;6.05;;;;;;;10.10;87.29;102006.72;4953183;29;20130;-82
2023/06/03 03:45:27;;;;;;;10.93;5.95;;;;;;;10.06;86.94;101996.09;4962430;28;20033;-81
2023/06/03 03:47:59;;;;;;;9.80;5.75;;;;;;;10.06;87.65;102005.13;4938750;29;20486;-81
2023/06/03 03:50:48;;;;;;;9.93;6.13;;;;;;;10.06;87.21;101998.81;4954976;29;20525;-81
2023/06/03 03:53:21;;;;;;;8.52;5.82;;;;;;;10.01;87.66;101999.06;4964342;28;20066;-82
2023/06/03 03:55:51;;;;;;;12.40;6.43;;;;;;;10.01;87.63;102003.59;4955951;28;20058;-82
2023/06/03 03:58:26;;;;;;;12.00;5.90;;;;;;;10.04;87.39;102004.34;4972829;28;20038;-82
2023/06/03 04:00:59;;;;;;;14.77;6.03;;;;;;;10.01;86.40;102001.75;4941300;29;20371;-81
2023/06/03 04:03:25;;;;;;;8.65;5.43;;;;;;;10.06;86.01;102007.84;4953440;29;20043;-82
2023/06/03 04:05:52;;;;;;;10.75;6.15;;;;;;;10.11;86.21;102013.03;4960088;28;20478;-82
2023/06/03 04:08:40;;;;;;;20.58;6.22;;;;;;;10.12;85.71;102002.13;4955166;28;20043;-82
2023/06/03 04:11:20;;;;;;;12.52;6.63;;;;;;;10.10;85.81;101995.84;4952806;29;20051;-82
2023/06/03 04:13:46;;;;;;;11.65;5.68;;;;;;;10.13;85.03;102000.28;4969491;28;20125;-82
2023/06/03 04:16:34;;;;;;;12.32;5.78;;;;;;;10.21;84.90;102004.34;4953644;28;20505;-82
2023/06/03 04:19:09;;;;;;;11.38;6.28;;;;;;;10.20;85.15;101993.53;4967757;28;20030;-82
2023/06/03 04:21:38;;;;;;;8.85;6.38;;;;;;;10.25;85.49;102006.91;4956727;28;20026;-82
2023/06/03 04:24:05;;;;;;;13.02;6.38;;;;;;;10.26;85.53;102006.88;4957140;28;20051;-82
2023/06/03 04:26:30;;;;;;;12.18;6.25;;;;;;;10.29;86.19;102012.13;4952595;29;20577;-82
2023/06/03 04:28:56;;;;;;;10.13;6.25;;;;;;;10.29;86.40;102013.97;4952979;28;20031;-82
2023/06/03 04:31:21;;;;;;;15.02;7.45;;;;;;;10.31;86.35;102014.78;4953078;28;20448;-82
2023/06/03 04:33:48;;;;;;;12.98;5.80;;;;;;;10.32;85.38;102014.69;4955263;29;20194;-82
2023/06/03 04:36:14;;;;;;;10.18;6.18;;;;;;;10.33;84.86;102011.00;4937445;29;20039;-82
2023/06/03 04:38:41;;;;;;;10.25;6.13;;;;;;;10.36;85.78;102015.41;4968228;28;20144;-82
2023/06/03 04:41:10;;;;;;;23.98;6.75;;;;;;;10.37;85.94;102012.59;4955546;28;20402;-82
2023/06/03 04:43:38;;;;;;;12.88;6.00;;;;;;;10.39;85.96;102013.38;4967111;28;20174;-81
2023/06/03 04:46:06;;;;;;;10.98;6.30;;;;;;;10.45;85.38;102023.97;4952733;28;20035;-82
2023/06/03 04:48:33;;;;;;;13.75;5.72;;;;;;;10.52;85.28;102020.91;4952745;29;20042;-81
2023/06/03 04:51:01;;;;;;;10.05;6.10;;;;;;;10.53;84.46;102020.81;4953810;28;20569;-81
2023/06/03 04:53:28;;;;;;;10.05;6.22;;;;;;;10.55;84.48;102013.47;4980061;28;20043;-81
2023/06/03 04:55:54;;;;;;;9.88;5.78;;;;;;;10.63;83.92;102013.03;4970373;28;20070;-82
2023/06/03 04:58:22;;;;;;;8.45;5.80;;;;;;;10.71;84.93;102017.09;4970604;28;20031;-81
2023/06/03 05:00:49;;;;;;;8.45;5.35;;;;;;;10.77;84.36;102020.47;4955180;28;20058;-81
2023/06/03 05:03:17;;;;;;;11.30;5.90;;;;;;;10.80;85.41;102014.84;4967864;28;20039;-82
2023/06/03 05:05:43;;;;;;;8.50;5.53;;;;;;;10.86;86.17;102025.41;4951608;29;20035;-81
2023/06/03 05:08:10;;;;;;;12.77;5.72;;;;;;;10.93;85.69;102024.13;4943463;28;20042;-82
2023/06/03 05:10:36;;;;;;;12.30;5.72;;;;;;;10.92;85.26;102012.34;4951429;28;20382;-82
2023/06/03 05:13:05;;;;;;;8.70;5.03;;;;;;;11.04;82.78;102026.22;4950349;29;20039;-82
2023/06/03 05:15:33;;;;;;;11.65;5.65;;;;;;;11.05;84.85;102023.44;4950365;28;20042;-82
2023/06/03 05:18:02;;;;;;;9.57;5.50;;;;;;;11.06;85.01;102011.59;4966928;28;20170;-81
2023/06/03 05:20:31;;;;;;;8.38;5.05;;;;;;;11.13;83.81;102010.25;4950636;28;20031;-82
2023/06/03 05:22:57;;;;;;;9.73;4.53;;;;;;;11.21;83.09;102024.34;4950130;28;20110;-82
2023/06/03 05:25:23;;;;;;;9.13;5.35;;;;;;;11.24;83.11;102017.84;4952422;28;20046;-82
2023/06/03 05:27:48;;;;;;;7.60;4.65;;;;;;;11.31;81.58;102019.25;4967953;28;20138;-82
2023/06/03 05:30:15;;;;;;;7.38;4.55;;;;;;;11.35;79.48;102018.09;4958176;28;20065;-82
2023/06/03 05:32:41;;;;;;;7.50;4.78;;;;;;;11.48;79.62;102023.75;4951876;28;20313;-83
2023/06/03 05:35:08;;;;;;;11.25;4.43;;;;;;;11.49;78.18;102022.75;4950307;28;20469;-83
2023/06/03 05:37:33;;;;;;;6.68;4.55;;;;;;;11.56;80.65;102026.88;4949688;28;20094;-82
2023/06/03 05:39:59;;;;;;;12.20;6.03;;;;;;;11.59;80.00;102020.38;4966156;28;20019;-82
2023/06/03 05:42:24;;;;;;;9.70;4.95;;;;;;;11.60;80.04;102023.00;4964661;28;20110;-83
2023/06/03 05:44:50;;;;;;;9.15;4.63;;;;;;;11.68;79.26;102022.59;4968851;28;20039;-82
2023/06/03 05:47:16;;;;;;;8.00;4.30;;;;;;;11.67;75.90;102010.81;4952928;28;20035;-82
2023/06/03 05:49:42;;;;;;;10.95;4.90;;;;;;;11.81;77.32;102026.34;4969466;28;20046;-82
2023/06/03 05:52:07;;;;;;;7.85;4.00;;;;;;;11.79;76.44;102005.59;4967416;28;20043;-82
2023/06/03 05:54:33;;;;;;;11.50;4.13;;;;;;;11.89;76.32;102012.28;4968691;28;20056;-82
2023/06/03 05:56:58;;;;;;;6.70;4.50;;;;;;;11.93;76.09;102017.47;4951249;28;20073;-81
2023/06/03 05:59:24;;;;;;;6.70;4.03;;;;;;;11.94;75.00;102011.06;4957258;28;20065;-82
2023/06/03 06:01:50;;;;;;;7.00;4.00;;;;;;;12.05;75.93;102028.63;4962205;28;20035;-82
2023/06/03 06:04:17;;;;;;;5.68;3.85;;;;;;;12.11;73.26;102029.13;4950519;29;20027;-82
2023/06/03 06:06:42;;;;;;;6.82;4.43;;;;;;;12.16;74.52;102021.53;4964448;28;20097;-82
2023/06/03 06:09:08;;;;;;;8.77;4.30;;;;;;;12.25;74.21;102031.03;4952050;28;20599;-81
2023/06/03 06:11:34;;;;;;;6.25;3.75;;;;;;;12.31;72.21;102027.03;4950964;28;20070;-82
2023/06/03 06:13:59;;;;;;;6.75;3.78;;;;;;;12.36;71.52;102023.09;4950875;28;20169;-81
2023/06/03 06:16:25;;;;;;;7.45;4.20;;;;;;;12.45;73.32;102027.06;4950413;28;20043;-82
2023/06/03 06:18:51;;;;;;;7.03;3.75;;;;;;;12.41;71.00;102015.50;4958108;28;20035;-82
2023/06/03 06:21:17;;;;;;;6.82;3.67;;;;;;;12.56;69.57;102026.44;4969030;28;20357;-82
2023/06/03 06:23:43;;;;;;;5.78;3.47;;;;;;;12.60;70.70;102030.75;4951971;28;20348;-82
2023/06/03 06:26:13;;;;;;;8.07;3.63;;;;;;;12.61;70.65;102027.91;4968165;28;20053;-83
2023/06/03 06:28:39;;;;;;;5.15;3.63;;;;;;;12.70;70.54;102029.19;4953022;28;20046;-82
2023/06/03 06:31:08;;;;;;;10.45;4.30;;;;;;;12.83;68.04;102035.63;4970686;28;20470;-82
2023/06/03 06:33:38;;;;;;;7.80;3.90;;;;;;;12.92;67.34;102039.66;4955753;28;20111;-83
2023/06/03 06:36:27;;;;;;;6.90;4.13;;;;;;;12.99;68.04;102038.25;4970319;28;20125;-82
2023/06/03 06:38:53;;;;;;;6.45;3.47;;;;;;;13.06;67.23;102038.78;4955479;28;20478;-83
2023/06/03 06:41:19;;;;;;;6.90;3.50;;;;;;;13.17;65.51;102028.03;4955404;28;20034;-82
2023/06/03 06:43:45;;;;;;;6.47;3.50;;;;;;;13.26;64.06;102033.81;4954564;28;20031;-82
2023/06/03 06:46:10;;;;;;;8.13;3.72;;;;;;;13.30;65.89;102029.03;4953624;28;20402;-83
2023/06/03 06:48:38;;;;;;;8.05;3.05;;;;;;;13.40;64.32;102037.50;4951938;29;20042;-82
2023/06/03 06:51:04;;;;;;;8.60;3.38;;;;;;;13.49;61.69;102040.50;4951984;28;20045;-82
2023/06/03 06:53:35;;;;;;;11.43;3.38;;;;;;;13.49;64.57;102035.03;4951642;29;20041;-83
2023/06/03 06:56:08;;;;;;;4.63;3.03;;;;;;;13.57;64.83;102040.00;4959761;28;20518;-82
2023/06/03 06:58:54;;;;;;;8.75;3.20;;;;;;;13.62;63.77;102034.22;4969518;28;20121;-83
2023/06/03 07:01:21;;;;;;;5.57;3.20;;;;;;;13.67;63.15;102030.22;4951358;28;20122;-82
2023/06/03 07:03:49;;;;;;;9.10;3.38;;;;;;;13.83;61.44;102040.13;4950036;28;20058;-82
2023/06/03 07:06:16;;;;;;;7.28;3.15;;;;;;;13.89;62.37;102028.75;4968258;28;20065;-83
2023/06/03 07:08:42;;;;;;;7.25;2.55;;;;;;;13.97;60.89;102031.84;4951119;28;20035;-82
2023/06/03 07:11:08;;;;;;;5.25;2.70;;;;;;;14.02;61.33;102024.22;4952640;28;20110;-82
2023/06/03 07:13:51;;;;;;;6.13;2.90;;;;;;;14.15;61.64;102030.59;4966638;28;20505;-81
2023/06/03 07:16:18;;;;;;;4.28;2.97;;;;;;;14.23;62.83;102025.50;4952993;28;20039;-82
2023/06/03 07:18:43;;;;;;;23.95;3.78;;;;;;;14.35;59.19;102029.22;4967561;28;20038;-82
2023/06/03 07:21:09;;;;;;;16.95;3.35;;;;;;;14.59;59.08;102031.25;4951992;29;20032;-82
2023/06/03 07:23:35;;;;;;;6.53;2.38;;;;;;;14.77;58.74;102028.09;4969972;28;20402;-82
2023/06/03 07:26:03;;;;;;;6.05;2.33;;;;;;;14.86;57.69;102026.56;4954649;28;20033;-82
2023/06/03 07:28:33;;;;;;;5.68;2.50;;;;;;;14.93;59.64;102027.00;4970104;28;20466;-82
2023/06/03 07:31:05;;;;;;;4.43;2.30;;;;;;;14.98;58.66;102031.16;4962295;28;20466;-82
2023/06/03 07:33:36;;;;;;;4.47;2.22;;;;;;;15.05;57.41;102040.69;4968742;28;20494;-83
2023/06/03 07:36:03;;;;;;;4.82;1.88;;;;;;;15.15;56.98;102038.16;4935178;29;20346;-83
2023/06/03 07:38:37;;;;;;;4.05;2.30;;;;;;;15.21;58.70;102032.25;4966988;28;20043;-83
2023/06/03 07:41:05;;;;;;;6.15;1.92;;;;;;;15.28;55.78;102032.66;4934846;29;20494;-83
2023/06/03 07:43:32;;;;;;;5.10;2.25;;;;;;;15.34;52.94;102025.84;4943583;29;20045;-82
2023/06/03 07:46:02;;;;;;;2.75;1.85;;;;;;;15.39;51.37;102029.13;4958675;28;20137;-82
2023/06/03 07:48:28;;;;;;;6.65;2.08;;;;;;;15.51;54.69;102030.97;4971459;28;20105;-82
2023/06/03 07:50:53;;;;;;;5.57;2.25;;;;;;;15.59;50.29;102031.28;4971737;28;20258;-83
2023/06/03 07:53:23;;;;;;;9.45;1.90;;;;;;;15.67;53.89;102034.38;4954421;28;20038;-82
2023/06/03 07:55:49;;;;;;;4.70;1.95;;;;;;;15.71;53.93;102026.75;4970461;28;20049;-83
2023/06/03 07:58:16;;;;;;;4.65;1.92;;;;;;;15.89;49.65;102038.22;4969415;28;20042;-82
2023/06/03 08:00:54;;;;;;;2.58;1.77;;;;;;;15.91;48.95;102034.38;4949742;29;20035;-82
2023/06/03 08:03:25;;;;;;;7.38;1.70;;;;;;;16.15;50.58;102042.59;4951944;28;20039;-83
2023/06/03 08:05:51;;;;;;;4.10;1.55;;;;;;;16.52;51.44;102028.75;4950927;29;20075;-83
2023/06/03 08:08:20;;;;;;;6.88;1.75;;;;;;;16.89;46.55;102034.97;4955525;28;20034;-82
2023/06/03 08:10:46;;;;;;;2.58;1.65;;;;;;;17.15;44.83;102043.00;4968808;28;20103;-81
2023/06/03 08:13:13;;;;;;;3.25;1.98;;;;;;;17.66;44.43;102034.19;4953419;28;20062;-82
2023/06/03 08:15:40;;;;;;;2.72;1.17;;;;;;;18.17;44.57;102028.06;4964625;28;20051;-83
2023/06/03 08:18:06;;;;;;;3.33;1.85;;;;;;;18.50;43.52;102029.78;4951949;28;20521;-83
2023/06/03 08:20:33;;;;;;;4.38;1.40;;;;;;;18.74;38.11;102032.31;4950361;28;20107;-82
2023/06/03 08:22:59;;;;;;;47.60;4.32;;;;;;;19.08;41.35;102031.06;4949609;28;20062;-83
2023/06/03 08:25:25;;;;;;;12.23;2.00;;;;;;;19.55;42.54;102033.28;4951215;29;20094;-83
2023/06/03 08:27:51;;;;;;;4.28;1.67;;;;;;;19.88;41.54;102026.56;4950924;28;20501;-83
2023/06/03 08:30:18;;;;;;;7.03;1.83;;;;;;;20.14;38.33;102026.88;4964082;28;20130;-83
2023/06/03 08:32:45;;;;;;;1.67;1.13;;;;;;;20.41;36.31;102030.81;4950302;28;20398;-83
2023/06/03 08:35:12;;;;;;;7.38;1.70;;;;;;;20.50;37.62;102029.97;4951624;29;20035;-83
2023/06/03 08:37:37;;;;;;;5.72;1.48;;;;;;;20.74;34.60;102027.59;4966018;28;20049;-83
2023/06/03 08:40:09;;;;;;;5.60;1.33;;;;;;;20.85;38.63;102029.34;4952079;28;20035;-83
2023/06/03 08:42:42;;;;;;;3.45;1.50;;;;;;;20.83;38.84;102031.34;4968022;28;20157;-83
2023/06/03 08:45:13;;;;;;;8.05;1.77;;;;;;;20.90;38.88;102021.44;4951287;28;20486;-83
2023/06/03 08:48:11;;;;;;;4.15;1.50;;;;;;;21.42;37.04;102032.06;4951244;28;20439;-83
2023/06/03 08:50:37;;;;;;;3.83;1.52;;;;;;;21.43;35.91;102020.84;4949896;29;20043;-83
2023/06/03 08:53:08;;;;;;;3.92;1.73;;;;;;;21.42;33.55;102030.16;4951185;28;20127;-82
2023/06/03 08:55:39;;;;;;;4.45;1.55;;;;;;;21.33;33.85;102026.41;4950664;28;20053;-82
2023/06/03 08:58:12;;;;;;;4.90;1.50;;;;;;;21.69;34.28;102022.91;4933165;29;20035;-83
2023/06/03 09:00:38;;;;;;;4.63;1.33;;;;;;;22.30;35.21;102022.19;4955780;28;20126;-84
2023/06/03 09:03:05;;;;;;;5.82;1.50;;;;;;;22.33;32.01;102022.72;4969491;28;20035;-83
2023/06/03 09:05:33;;;;;;;2.42;1.15;;;;;;;22.36;34.90;102024.31;4968268;28;20034;-84
2023/06/03 09:07:59;;;;;;;2.42;1.48;;;;;;;22.78;34.67;102024.47;4968808;28;20042;-83
2023/06/03 09:10:25;;;;;;;4.68;1.25;;;;;;;22.37;30.54;102017.72;4952899;28;20065;-82
2023/06/03 09:12:54;;;;;;;3.28;1.50;;;;;;;21.87;31.25;102029.34;4967050;28;20102;-82
2023/06/03 09:15:21;;;;;;;4.75;1.70;;;;;;;21.44;34.66;102021.69;4948957;28;20034;-83
2023/06/03 09:17:46;;;;;;;7.78;1.92;;;;;;;21.34;33.08;102025.38;4949533;28;20043;-82
2023/06/03 09:20:13;;;;;;;4.97;1.63;;;;;;;21.21;32.51;102022.06;4933900;29;20038;-83
2023/06/03 09:22:41;;;;;;;11.75;1.55;;;;;;;21.06;33.25;102018.91;4950372;28;20047;-83
2023/06/03 09:25:07;;;;;;;7.97;1.23;;;;;;;21.00;32.30;102022.28;4948415;29;20034;-82
2023/06/03 09:27:33;;;;;;;4.95;1.40;;;;;;;21.17;32.61;102022.50;4948572;29;20122;-82
2023/06/03 09:30:01;;;;;;;4.93;1.38;;;;;;;21.20;34.33;102025.84;4965424;28;20469;-84
2023/06/03 09:32:27;;;;;;;4.65;1.30;;;;;;;21.39;34.51;102013.84;4964541;28;20031;-83
2023/06/03 09:34:53;;;;;;;3.00;1.33;;;;;;;21.42;32.63;102016.31;4948794;29;20087;-83
2023/06/03 09:37:19;;;;;;;5.25;1.35;;;;;;;21.45;33.45;102016.03;4950543;28;20038;-82
2023/06/03 09:39:44;;;;;;;4.03;1.25;;;;;;;21.51;32.28;102018.19;4949648;29;20094;-83
2023/06/03 09:42:11;;;;;;;5.63;1.70;;;;;;;21.58;32.90;102022.06;4948681;28;20122;-82
2023/06/03 09:44:54;;;;;;;6.20;1.50;;;;;;;22.15;36.11;102008.00;4948860;28;20391;-83
2023/06/03 09:47:20;;;;;;;3.33;1.40;;;;;;;22.29;29.54;102023.19;4948101;29;20106;-83
2023/06/03 09:50:02;;;;;;;7.22;1.30;;;;;;;22.41;33.04;102020.00;4950883;28;20033;-83
2023/06/03 09:52:35;;;;;;;5.43;1.20;;;;;;;22.50;31.97;102015.41;4950568;28;20415;-82
2023/06/03 09:55:08;;;;;;;5.13;1.25;;;;;;;22.96;32.67;102007.81;4951348;28;20126;-83
2023/06/03 09:57:35;;;;;;;1.70;0.90;;;;;;;23.10;27.80;102014.66;4967788;28;20035;-81
2023/06/03 10:00:07;;;;;;;3.45;1.30;;;;;;;23.02;29.47;102011.81;4953080;28;20152;-82
2023/06/03 10:02:32;;;;;;;3.85;1.05;;;;;;;22.60;29.33;102015.31;4971842;28;20509;-83
2023/06/03 10:05:00;;;;;;;2.08;1.10;;;;;;;22.92;28.58;102026.69;4973390;28;20069;-83
2023/06/03 10:07:26;;;;;;;4.95;1.38;;;;;;;23.19;27.96;102016.44;4972925;28;20042;-83
2023/06/03 10:10:03;;;;;;;4.22;1.42;;;;;;;23.50;28.91;102015.88;4961989;28;20035;-82
2023/06/03 10:12:32;;;;;;;2.83;1.15;;;;;;;23.63;29.67;102027.41;4952980;28;20070;-83
2023/06/03 10:15:00;;;;;;;3.50;1.05;;;;;;;23.68;27.23;102023.09;4964771;28;20506;-82
2023/06/03 10:17:26;;;;;;;3.28;1.20;;;;;;;23.48;24.97;102026.31;4968319;28;20043;-82
2023/06/03 10:19:52;;;;;;;3.63;1.30;;;;;;;23.46;27.71;102008.94;4952417;29;20083;-82
2023/06/03 10:22:19;;;;;;;4.18;1.10;;;;;;;23.37;27.50;102005.25;4961451;28;20094;-82
2023/06/03 10:24:46;;;;;;;4.88;1.05;;;;;;;23.53;28.22;102010.88;4952478;29;20063;-83
2023/06/03 10:27:13;;;;;;;2.25;0.90;;;;;;;23.32;24.87;102010.44;4953371;28;20066;-82
2023/06/03 10:29:40;;;;;;;4.00;1.40;;;;;;;23.25;23.72;102009.34;4956073;28;20489;-83
2023/06/03 10:32:06;;;;;;;4.28;1.00;;;;;;;23.09;24.27;102005.47;4951824;29;20035;-82
2023/06/03 10:34:41;;;;;;;4.82;1.10;;;;;;;22.84;24.55;102006.28;4952425;29;20130;-83
2023/06/03 10:37:08;;;;;;;1.40;0.95;;;;;;;23.07;26.71;101998.31;4957064;28;20077;-82
2023/06/03 10:39:34;;;;;;;2.53;1.02;;;;;;;23.17;24.83;101999.97;4972410;28;20427;-83
2023/06/03 10:42:01;;;;;;;3.90;1.20;;;;;;;23.41;25.30;102013.09;4954847;28;20122;-82
2023/06/03 10:44:28;;;;;;;5.78;1.25;;;;;;;23.36;27.03;102011.81;4971116;28;20042;-83
2023/06/03 10:47:12;;;;;;;4.53;0.88;;;;;;;23.98;29.12;102003.22;4969898;28;20030;-83
2023/06/03 10:49:50;;;;;;;4.10;1.02;;;;;;;24.28;26.34;101999.78;4972477;28;20490;-82
2023/06/03 10:52:22;;;;;;;2.63;0.98;;;;;;;24.41;26.45;102002.94;4936817;28;20130;-83
2023/06/03 10:55:03;;;;;;;;;;;;;;;24.64;27.90;102005.91;4954086;28;20167;-83
2023/06/03 10:57:37;;;;;;;2.70;1.23;;;;;;;25.04;27.13;102004.09;4952612;28;19914;-84
2023/06/03 11:00:04;;;;;;;1.77;1.08;;;;;;;25.53;28.09;101995.59;4955841;28;20027;-83
2023/06/03 11:03:03;;;;;;;4.72;0.93;;;;;;;25.73;25.25;101995.13;4954361;28;20359;-82
2023/06/03 11:05:28;;;;;;;5.95;1.08;;;;;;;25.27;24.30;101989.41;4952758;28;20070;-83
2023/06/03 11:07:54;;;;;;;3.53;1.02;;;;;;;25.07;20.70;101995.41;4961990;28;20068;-82
2023/06/03 11:10:35;;;;;;;2.45;0.93;;;;;;;24.76;23.85;102008.31;4969666;28;20413;-83
2023/06/03 11:13:02;;;;;;;2.05;0.90;;;;;;;24.84;24.56;101999.94;4951172;28;20035;-82
2023/06/03 11:16:02;;;;;;;3.95;1.20;;;;;;;25.30;26.39;101995.50;4951478;28;20530;-83
2023/06/03 11:18:30;;;;;;;2.03;0.90;;;;;;;25.57;23.82;101998.88;4970821;28;20035;-82
2023/06/03 11:20:56;;;;;;;4.72;1.40;;;;;;;24.90;22.65;101997.34;4951089;29;20038;-83
2023/06/03 11:23:40;;;;;;;1.70;1.10;;;;;;;24.67;24.84;101996.34;4952376;28;20100;-83
2023/06/03 11:26:34;;;;;;;2.38;1.00;;;;;;;24.26;23.52;102015.78;4950586;28;20046;-83
2023/06/03 11:29:05;;;;;;;2.85;0.70;;;;;;;23.86;25.24;101991.56;4966333;28;20035;-83